sensor_id;sensor_type;location;lat;lon;timestamp;pressure;altitude;pressure_sealevel;temperature;humidity
15529;BME280;7866;52.280;9.500;2023-11-19T00:03:10;99621.84;;;7.87;100.00
15529;BME280;7866;52.280;9.500;2023-11-19T00:08:13;99613.50;;;7.90;100.00
15529;BME280;7866;52.280;9.500;2023-11-19T00:13:15;99592.47;;;7.95;100.00
15529;BME280;7866;52.280;9.500;2023-11-19T00:18:18;99597.63;;;7.97;100.00
15529;BME280;7866;52.280;9.500;2023-11-19T00:23:19;99584.63;;;8.02;100.00
15529;BME280;7866;52.280;9.500;2023-11-19T00:28:21;99590.78;;;8.10;100.00
15529;BME280;7866;52.280;9.500;2023-11-19T00:33:24;99580.78;;;8.04;100.00
15529;BME280;7866;52.280;9.500;2023-11-19T00:38:26;99588.59;;;8.14;100.00
15529;BME280;7866;52.280;9.500;2023-11-19T00:43:27;99589.41;;;8.23;100.00
15529;BME280;7866;52.280;9.500;2023-11-19T00:48:30;99581.84;;;8.34;100.00
15529;BME280;7866;52.280;9.500;2023-11-19T00:53:32;99580.16;;;8.42;100.00
15529;BME280;7866;52.280;9.500;2023-11-19T00:58:34;99566.69;;;8.35;100.00
15529;BME280;7866;52.280;9.500;2023-11-19T01:03:38;99557.00;;;8.34;100.00
15529;BME280;7866;52.280;9.500;2023-11-19T01:08:39;99550.19;;;8.31;100.00
15529;BME280;7866;52.280;9.500;2023-11-19T01:13:42;99514.00;;;8.29;100.00
15529;BME280;7866;52.280;9.500;2023-11-19T01:18:46;99511.81;;;8.32;100.00
15529;BME280;7866;52.280;9.500;2023-11-19T01:23:48;99521.66;;;8.40;100.00
15529;BME280;7866;52.280;9.500;2023-11-19T01:28:49;99528.28;;;8.44;100.00
15529;BME280;7866;52.280;9.500;2023-11-19T01:33:54;99503.06;;;8.55;100.00
15529;BME280;7866;52.280;9.500;2023-11-19T01:38:55;99504.53;;;8.57;100.00
15529;BME280;7866;52.280;9.500;2023-11-19T01:43:57;99497.19;;;8.59;100.00
15529;BME280;7866;52.280;9.500;2023-11-19T01:49:00;99501.63;;;8.67;100.00
15529;BME280;7866;52.280;9.500;2023-11-19T01:54:04;99508.75;;;8.75;100.00
15529;BME280;7866;52.280;9.500;2023-11-19T01:59:06;99490.84;;;8.83;100.00
15529;BME280;7866;52.280;9.500;2023-11-19T02:04:11;99484.47;;;8.84;100.00
15529;BME280;7866;52.280;9.500;2023-11-19T02:09:14;99487.16;;;8.84;100.00
15529;BME280;7866;52.280;9.500;2023-11-19T02:14:22;99474.28;;;8.88;100.00
15529;BME280;7866;52.280;9.500;2023-11-19T02:19:27;99461.28;;;8.85;100.00
15529;BME280;7866;52.280;9.500;2023-11-19T02:24:29;99460.56;;;8.91;100.00
15529;BME280;7866;52.280;9.500;2023-11-19T02:29:36;99461.03;;;8.95;100.00
15529;BME280;7866;52.280;9.500;2023-11-19T02:34:37;99434.06;;;9.04;100.00
15529;BME280;7866;52.280;9.500;2023-11-19T02:39:39;99435.00;;;9.11;100.00
15529;BME280;7866;52.280;9.500;2023-11-19T02:44:44;99433.38;;;9.10;100.00
15529;BME280;7866;52.280;9.500;2023-11-19T02:49:46;99406.66;;;9.10;100.00
15529;BME280;7866;52.280;9.500;2023-11-19T02:54:48;99409.88;;;9.21;100.00
15529;BME280;7866;52.280;9.500;2023-11-19T02:59:52;99418.19;;;9.26;100.00
15529;BME280;7866;52.280;9.500;2023-11-19T03:04:56;99385.72;;;9.29;100.00
15529;BME280;7866;52.280;9.500;2023-11-19T03:10:00;99395.34;;;9.38;100.00
15529;BME280;7866;52.280;9.500;2023-11-19T03:15:03;99392.84;;;9.51;100.00
15529;BME280;7866;52.280;9.500;2023-11-19T03:20:07;99396.78;;;9.55;100.00
15529;BME280;7866;52.280;9.500;2023-11-19T03:25:10;99397.16;;;9.67;100.00
15529;BME280;7866;52.280;9.500;2023-11-19T03:30:13;99399.63;;;9.69;100.00
15529;BME280;7866;52.280;9.500;2023-11-19T03:35:15;99395.09;;;9.69;100.00
15529;BME280;7866;52.280;9.500;2023-11-19T03:40:16;99406.81;;;9.68;100.00
15529;BME280;7866;52.280;9.500;2023-11-19T03:45:20;99386.81;;;9.64;100.00
15529;BME280;7866;52.280;9.500;2023-11-19T03:50:22;99359.19;;;9.57;100.00
15529;BME280;7866;52.280;9.500;2023-11-19T03:55:23;99356.78;;;9.62;100.00
15529;BME280;7866;52.280;9.500;2023-11-19T04:00:26;99347.53;;;9.79;100.00
15529;BME280;7866;52.280;9.500;2023-11-19T04:05:28;99354.22;;;9.90;100.00
15529;BME280;7866;52.280;9.500;2023-11-19T04:10:29;99341.91;;;10.10;100.00
15529;BME280;7866;52.280;9.500;2023-11-19T04:15:32;99359.66;;;10.18;100.00
15529;BME280;7866;52.280;9.500;2023-11-19T04:20:34;99370.59;;;10.38;100.00
15529;BME280;7866;52.280;9.500;2023-11-19T04:25:36;99357.84;;;10.40;100.00
15529;BME280;7866;52.280;9.500;2023-11-19T04:30:40;99375.44;;;10.49;100.00
15529;BME280;7866;52.280;9.500;2023-11-19T04:35:41;99371.00;;;10.63;100.00
15529;BME280;7866;52.280;9.500;2023-11-19T04:40:43;99353.16;;;10.70;100.00
15529;BME280;7866;52.280;9.500;2023-11-19T04:45:46;99356.06;;;10.75;100.00
15529;BME280;7866;52.280;9.500;2023-11-19T04:50:47;99356.06;;;11.03;100.00
15529;BME280;7866;52.280;9.500;2023-11-19T04:55:49;99367.97;;;11.29;100.00
15529;BME280;7866;52.280;9.500;2023-11-19T05:00:52;99349.72;;;11.46;100.00
15529;BME280;7866;52.280;9.500;2023-11-19T05:05:53;99353.88;;;11.55;100.00
15529;BME280;7866;52.280;9.500;2023-11-19T05:10:55;99338.66;;;11.69;100.00
15529;BME280;7866;52.280;9.500;2023-11-19T05:15:59;99312.03;;;11.67;100.00
15529;BME280;7866;52.280;9.500;2023-11-19T05:21:00;99307.72;;;11.73;100.00
15529;BME280;7866;52.280;9.500;2023-11-19T05:26:02;99316.88;;;11.85;100.00
15529;BME280;7866;52.280;9.500;2023-11-19T05:31:05;99319.91;;;11.75;100.00
15529;BME280;7866;52.280;9.500;2023-11-19T05:36:07;99325.31;;;11.89;100.00
15529;BME280;7866;52.280;9.500;2023-11-19T05:41:09;99326.38;;;11.88;100.00
15529;BME280;7866;52.280;9.500;2023-11-19T05:46:12;99333.59;;;11.87;100.00
15529;BME280;7866;52.280;9.500;2023-11-19T05:51:14;99322.66;;;11.95;100.00
15529;BME280;7866;52.280;9.500;2023-11-19T05:56:16;99330.53;;;12.03;100.00
15529;BME280;7866;52.280;9.500;2023-11-19T06:01:23;99323.09;;;11.99;100.00
15529;BME280;7866;52.280;9.500;2023-11-19T06:06:24;99333.84;;;12.05;100.00
15529;BME280;7866;52.280;9.500;2023-11-19T06:11:26;99323.34;;;12.24;100.00
15529;BME280;7866;52.280;9.500;2023-11-19T06:16:29;99330.38;;;12.31;100.00
15529;BME280;7866;52.280;9.500;2023-11-19T06:21:31;99335.53;;;12.26;100.00
15529;BME280;7866;52.280;9.500;2023-11-19T06:26:32;99346.25;;;12.13;100.00
15529;BME280;7866;52.280;9.500;2023-11-19T06:31:35;99349.53;;;12.08;100.00
15529;BME280;7866;52.280;9.500;2023-11-19T06:36:37;99347.06;;;12.14;100.00
15529;BME280;7866;52.280;9.500;2023-11-19T06:41:44;99346.03;;;12.15;100.00
15529;BME280;7866;52.280;9.500;2023-11-19T06:46:48;99343.56;;;12.13;100.00
15529;BME280;7866;52.280;9.500;2023-11-19T06:51:49;99356.75;;;12.01;100.00
15529;BME280;7866;52.280;9.500;2023-11-19T06:56:51;99363.97;;;12.07;100.00
15529;BME280;7866;52.280;9.500;2023-11-19T07:01:54;99379.22;;;12.00;100.00
15529;BME280;7866;52.280;9.500;2023-11-19T07:06:55;99376.34;;;11.95;100.00
15529;BME280;7866;52.280;9.500;2023-11-19T07:11:57;99380.66;;;11.96;100.00
15529;BME280;7866;52.280;9.500;2023-11-19T07:17:01;99377.97;;;11.96;100.00
15529;BME280;7866;52.280;9.500;2023-11-19T07:22:03;99391.63;;;11.95;100.00
15529;BME280;7866;52.280;9.500;2023-11-19T07:27:06;99398.69;;;12.09;100.00
15529;BME280;7866;52.280;9.500;2023-11-19T07:32:10;99403.03;;;12.10;100.00
15529;BME280;7866;52.280;9.500;2023-11-19T07:37:13;99410.44;;;12.01;100.00
15529;BME280;7866;52.280;9.500;2023-11-19T07:42:17;99412.09;;;12.09;100.00
15529;BME280;7866;52.280;9.500;2023-11-19T07:47:20;99415.81;;;12.15;98.80
15529;BME280;7866;52.280;9.500;2023-11-19T07:52:23;99418.13;;;12.18;97.67
15529;BME280;7866;52.280;9.500;2023-11-19T07:57:25;99415.63;;;12.16;96.33
15529;BME280;7866;52.280;9.500;2023-11-19T08:02:32;99413.94;;;12.08;96.47
15529;BME280;7866;52.280;9.500;2023-11-19T08:07:33;99413.16;;;12.15;95.13
15529;BME280;7866;52.280;9.500;2023-11-19T08:12:35;99417.69;;;12.14;94.73
15529;BME280;7866;52.280;9.500;2023-11-19T08:17:38;99426.16;;;12.18;94.07
15529;BME280;7866;52.280;9.500;2023-11-19T08:22:40;99422.00;;;12.08;94.73
15529;BME280;7866;52.280;9.500;2023-11-19T08:27:42;99427.38;;;12.15;94.18
15529;BME280;7866;52.280;9.500;2023-11-19T08:32:45;99417.28;;;12.17;93.97
15529;BME280;7866;52.280;9.500;2023-11-19T08:37:46;99438.94;;;12.16;92.94
15529;BME280;7866;52.280;9.500;2023-11-19T08:42:48;99432.34;;;12.18;92.79
15529;BME280;7866;52.280;9.500;2023-11-19T08:47:51;99437.91;;;12.10;93.70
15529;BME280;7866;52.280;9.500;2023-11-19T08:52:52;99444.50;;;12.01;93.33
15529;BME280;7866;52.280;9.500;2023-11-19T08:57:54;99438.69;;;12.04;93.72
15529;BME280;7866;52.280;9.500;2023-11-19T09:02:57;99437.09;;;12.10;93.83
15529;BME280;7866;52.280;9.500;2023-11-19T09:07:59;99445.31;;;12.08;93.96
15529;BME280;7866;52.280;9.500;2023-11-19T09:13:01;99448.25;;;12.13;94.27
15529;BME280;7866;52.280;9.500;2023-11-19T09:18:04;99449.06;;;12.20;94.27
15529;BME280;7866;52.280;9.500;2023-11-19T09:23:06;99460.28;;;12.30;93.52
15529;BME280;7866;52.280;9.500;2023-11-19T09:28:09;99469.59;;;12.41;92.55
15529;BME280;7866;52.280;9.500;2023-11-19T09:33:12;99464.63;;;12.38;91.94
15529;BME280;7866;52.280;9.500;2023-11-19T09:38:14;99461.13;;;12.44;91.75
15529;BME280;7866;52.280;9.500;2023-11-19T09:43:16;99472.06;;;12.43;90.81
15529;BME280;7866;52.280;9.500;2023-11-19T09:48:19;99469.44;;;12.63;90.48
15529;BME280;7866;52.280;9.500;2023-11-19T09:53:21;99457.25;;;12.80;88.73
15529;BME280;7866;52.280;9.500;2023-11-19T09:58:22;99460.38;;;12.77;88.35
15529;BME280;7866;52.280;9.500;2023-11-19T10:03:26;99465.31;;;12.67;87.96
15529;BME280;7866;52.280;9.500;2023-11-19T10:08:29;99450.44;;;12.57;89.02
15529;BME280;7866;52.280;9.500;2023-11-19T10:13:31;99473.75;;;12.50;88.65
15529;BME280;7866;52.280;9.500;2023-11-19T10:18:34;99465.28;;;12.47;89.71
15529;BME280;7866;52.280;9.500;2023-11-19T10:23:48;99467.97;;;12.47;89.21
15529;BME280;7866;52.280;9.500;2023-11-19T10:28:50;99459.06;;;12.40;88.90
15529;BME280;7866;52.280;9.500;2023-11-19T10:33:53;99454.25;;;12.28;89.34
15529;BME280;7866;52.280;9.500;2023-11-19T10:38:56;99435.91;;;12.25;90.35
15529;BME280;7866;52.280;9.500;2023-11-19T10:43:59;99442.13;;;12.39;90.22
15529;BME280;7866;52.280;9.500;2023-11-19T10:49:02;99440.03;;;12.35;90.81
15529;BME280;7866;52.280;9.500;2023-11-19T10:54:05;99439.88;;;12.49;90.38
15529;BME280;7866;52.280;9.500;2023-11-19T10:59:07;99430.19;;;12.62;89.82
15529;BME280;7866;52.280;9.500;2023-11-19T11:04:14;99432.22;;;12.60;88.06
15529;BME280;7866;52.280;9.500;2023-11-19T11:09:17;99438.25;;;12.62;88.24
15529;BME280;7866;52.280;9.500;2023-11-19T11:14:20;99436.16;;;12.64;87.50
15529;BME280;7866;52.280;9.500;2023-11-19T11:19:23;99431.63;;;12.57;87.88
15529;BME280;7866;52.280;9.500;2023-11-19T11:24:39;99442.56;;;12.56;88.01
15529;BME280;7866;52.280;9.500;2023-11-19T11:29:49;99441.72;;;12.55;87.76
15529;BME280;7866;52.280;9.500;2023-11-19T11:35:01;99440.94;;;12.62;87.44
15529;BME280;7866;52.280;9.500;2023-11-19T11:40:14;99428.31;;;12.62;87.04
15529;BME280;7866;52.280;9.500;2023-11-19T11:45:16;99454.38;;;12.62;87.10
15529;BME280;7866;52.280;9.500;2023-11-19T11:50:19;99443.81;;;12.67;86.42
15529;BME280;7866;52.280;9.500;2023-11-19T11:55:23;99443.63;;;12.75;85.71
15529;BME280;7866;52.280;9.500;2023-11-19T12:00:26;99448.59;;;12.91;85.14
15529;BME280;7866;52.280;9.500;2023-11-19T12:05:30;99448.59;;;12.91;85.54
15529;BME280;7866;52.280;9.500;2023-11-19T12:10:37;99445.69;;;12.86;85.26
15529;BME280;7866;52.280;9.500;2023-11-19T12:16:09;99431.84;;;12.82;84.98
15529;BME280;7866;52.280;9.500;2023-11-19T12:21:27;99451.28;;;12.78;85.51
15529;BME280;7866;52.280;9.500;2023-11-19T12:26:36;99455.00;;;12.77;85.52
15529;BME280;7866;52.280;9.500;2023-11-19T12:31:44;99455.41;;;12.80;86.38
15529;BME280;7866;52.280;9.500;2023-11-19T12:36:47;99454.16;;;12.63;87.16
15529;BME280;7866;52.280;9.500;2023-11-19T12:41:49;99451.47;;;12.63;86.57
15529;BME280;7866;52.280;9.500;2023-11-19T12:47:03;99441.72;;;12.55;87.56
15529;BME280;7866;52.280;9.500;2023-11-19T12:52:13;99443.75;;;12.40;88.43
15529;BME280;7866;52.280;9.500;2023-11-19T12:57:14;99448.09;;;12.35;89.85
15529;BME280;7866;52.280;9.500;2023-11-19T13:02:16;99435.69;;;12.27;91.58
15529;BME280;7866;52.280;9.500;2023-11-19T13:07:22;99435.03;;;12.18;92.77
15529;BME280;7866;52.280;9.500;2023-11-19T13:12:23;99434.41;;;12.16;93.25
15529;BME280;7866;52.280;9.500;2023-11-19T13:17:25;99418.31;;;12.23;92.99
15529;BME280;7866;52.280;9.500;2023-11-19T13:22:28;99416.50;;;12.30;92.50
15529;BME280;7866;52.280;9.500;2023-11-19T13:27:30;99413.63;;;12.38;92.16
15529;BME280;7866;52.280;9.500;2023-11-19T13:32:32;99420.63;;;12.39;91.15
15529;BME280;7866;52.280;9.500;2023-11-19T13:37:35;99427.88;;;12.45;90.53
15529;BME280;7866;52.280;9.500;2023-11-19T13:42:37;99417.75;;;12.47;89.91
15529;BME280;7866;52.280;9.500;2023-11-19T13:47:42;99409.31;;;12.50;89.23
15529;BME280;7866;52.280;9.500;2023-11-19T13:52:45;99405.38;;;12.46;90.01
15529;BME280;7866;52.280;9.500;2023-11-19T13:57:47;99396.91;;;12.49;89.41
15529;BME280;7866;52.280;9.500;2023-11-19T14:02:49;99399.19;;;12.46;89.68
15529;BME280;7866;52.280;9.500;2023-11-19T14:07:53;99413.00;;;12.56;89.09
15529;BME280;7866;52.280;9.500;2023-11-19T14:12:57;99394.44;;;12.61;88.34
15529;BME280;7866;52.280;9.500;2023-11-19T14:17:58;99386.56;;;12.60;87.38
15529;BME280;7866;52.280;9.500;2023-11-19T14:23:01;99380.78;;;12.49;87.08
15529;BME280;7866;52.280;9.500;2023-11-19T14:28:04;99395.88;;;12.57;87.00
15529;BME280;7866;52.280;9.500;2023-11-19T14:33:06;99393.00;;;12.65;85.65
15529;BME280;7866;52.280;9.500;2023-11-19T14:38:09;99389.66;;;12.76;85.40
15529;BME280;7866;52.280;9.500;2023-11-19T14:43:11;99387.19;;;12.75;84.95
15529;BME280;7866;52.280;9.500;2023-11-19T14:48:12;99385.97;;;12.71;85.66
15529;BME280;7866;52.280;9.500;2023-11-19T14:53:16;99380.19;;;12.67;84.89
15529;BME280;7866;52.280;9.500;2023-11-19T14:58:17;99379.56;;;12.65;85.10
15529;BME280;7866;52.280;9.500;2023-11-19T15:03:19;99383.06;;;12.66;84.65
15529;BME280;7866;52.280;9.500;2023-11-19T15:08:22;99380.56;;;12.64;84.82
15529;BME280;7866;52.280;9.500;2023-11-19T15:13:24;99379.16;;;12.62;84.89
15529;BME280;7866;52.280;9.500;2023-11-19T15:18:26;99384.28;;;12.56;85.45
15529;BME280;7866;52.280;9.500;2023-11-19T15:23:29;99392.34;;;12.43;86.70
15529;BME280;7866;52.280;9.500;2023-11-19T15:28:31;99390.50;;;12.37;86.84
15529;BME280;7866;52.280;9.500;2023-11-19T15:33:32;99385.50;;;12.41;87.01
15529;BME280;7866;52.280;9.500;2023-11-19T15:38:35;99397.09;;;12.48;86.77
15529;BME280;7866;52.280;9.500;2023-11-19T15:43:37;99397.91;;;12.35;87.60
15529;BME280;7866;52.280;9.500;2023-11-19T15:48:39;99407.16;;;12.19;89.14
15529;BME280;7866;52.280;9.500;2023-11-19T15:53:42;99414.38;;;12.12;90.07
15529;BME280;7866;52.280;9.500;2023-11-19T15:58:44;99408.78;;;12.07;90.70
15529;BME280;7866;52.280;9.500;2023-11-19T16:03:46;99417.00;;;11.99;91.26
15529;BME280;7866;52.280;9.500;2023-11-19T16:08:49;99419.47;;;12.00;90.83
15529;BME280;7866;52.280;9.500;2023-11-19T16:13:51;99420.31;;;11.94;91.40
15529;BME280;7866;52.280;9.500;2023-11-19T16:18:52;99418.22;;;11.96;91.07
15529;BME280;7866;52.280;9.500;2023-11-19T16:23:55;99422.00;;;12.08;89.91
15529;BME280;7866;52.280;9.500;2023-11-19T16:28:57;99412.31;;;12.14;89.20
15529;BME280;7866;52.280;9.500;2023-11-19T16:33:59;99416.63;;;12.08;89.08
15529;BME280;7866;52.280;9.500;2023-11-19T16:39:03;99419.69;;;11.99;89.74
15529;BME280;7866;52.280;9.500;2023-11-19T16:44:05;99406.69;;;11.96;90.03
15529;BME280;7866;52.280;9.500;2023-11-19T16:49:07;99421.56;;;11.98;90.15
15529;BME280;7866;52.280;9.500;2023-11-19T16:54:10;99420.09;;;11.89;90.70
15529;BME280;7866;52.280;9.500;2023-11-19T16:59:12;99420.53;;;11.99;90.00
15529;BME280;7866;52.280;9.500;2023-11-19T17:04:15;99413.94;;;12.02;89.46
15529;BME280;7866;52.280;9.500;2023-11-19T17:09:18;99403.63;;;12.05;89.30
15529;BME280;7866;52.280;9.500;2023-11-19T17:14:20;99408.97;;;11.99;89.45
15529;BME280;7866;52.280;9.500;2023-11-19T17:19:22;99407.94;;;12.00;89.40
15529;BME280;7866;52.280;9.500;2023-11-19T17:24:25;99410.19;;;11.96;90.24
15529;BME280;7866;52.280;9.500;2023-11-19T17:29:26;99412.03;;;11.96;90.44
15529;BME280;7866;52.280;9.500;2023-11-19T17:34:28;99409.38;;;12.02;90.14
15529;BME280;7866;52.280;9.500;2023-11-19T17:39:31;99419.47;;;12.00;90.34
15529;BME280;7866;52.280;9.500;2023-11-19T17:44:34;99423.84;;;12.01;90.35
15529;BME280;7866;52.280;9.500;2023-11-19T17:49:36;99430.38;;;11.92;91.16
15529;BME280;7866;52.280;9.500;2023-11-19T17:54:41;99423.16;;;11.86;92.01
15529;BME280;7866;52.280;9.500;2023-11-19T17:59:42;99438.75;;;11.76;93.62
15529;BME280;7866;52.280;9.500;2023-11-19T18:04:47;99429.06;;;11.75;94.31
15529;BME280;7866;52.280;9.500;2023-11-19T18:09:50;99423.84;;;11.67;95.11
15529;BME280;7866;52.280;9.500;2023-11-19T18:14:52;99425.72;;;11.73;94.91
15529;BME280;7866;52.280;9.500;2023-11-19T18:19:54;99430.09;;;11.74;94.97
15529;BME280;7866;52.280;9.500;2023-11-19T18:24:57;99433.78;;;11.73;95.14
15529;BME280;7866;52.280;9.500;2023-11-19T18:30:00;99431.09;;;11.73;94.27
15529;BME280;7866;52.280;9.500;2023-11-19T18:35:01;99432.38;;;11.77;93.82
15529;BME280;7866;52.280;9.500;2023-11-19T18:40:07;99434.66;;;11.80;93.66
15529;BME280;7866;52.280;9.500;2023-11-19T18:45:10;99439.41;;;11.78;93.52
15529;BME280;7866;52.280;9.500;2023-11-19T18:50:11;99429.50;;;11.78;93.62
15529;BME280;7866;52.280;9.500;2023-11-19T18:55:15;99429.13;;;11.88;92.29
15529;BME280;7866;52.280;9.500;2023-11-19T19:00:17;99424.59;;;11.89;91.37
15529;BME280;7866;52.280;9.500;2023-11-19T19:05:19;99420.09;;;11.96;91.09
15529;BME280;7866;52.280;9.500;2023-11-19T19:10:22;99418.66;;;11.93;91.12
15529;BME280;7866;52.280;9.500;2023-11-19T19:15:23;99423.97;;;11.87;90.56
15529;BME280;7866;52.280;9.500;2023-11-19T19:20:26;99414.28;;;11.86;90.57
15529;BME280;7866;52.280;9.500;2023-11-19T19:25:29;99417.16;;;11.84;90.96
15529;BME280;7866;52.280;9.500;2023-11-19T19:30:31;99427.09;;;11.90;90.87
15529;BME280;7866;52.280;9.500;2023-11-19T19:35:33;99418.84;;;11.85;90.86
15529;BME280;7866;52.280;9.500;2023-11-19T19:40:36;99415.34;;;11.91;91.31
15529;BME280;7866;52.280;9.500;2023-11-19T19:45:39;99423.72;;;11.81;92.15
15529;BME280;7866;52.280;9.500;2023-11-19T19:50:41;99424.38;;;11.83;92.40
15529;BME280;7866;52.280;9.500;2023-11-19T19:55:44;99424.81;;;11.87;92.56
15529;BME280;7866;52.280;9.500;2023-11-19T20:00:46;99419.59;;;11.79;92.99
15529;BME280;7866;52.280;9.500;2023-11-19T20:05:47;99423.34;;;11.84;92.77
15529;BME280;7866;52.280;9.500;2023-11-19T20:10:50;99417.16;;;11.84;93.18
15529;BME280;7866;52.280;9.500;2023-11-19T20:15:52;99417.53;;;11.81;93.34
15529;BME280;7866;52.280;9.500;2023-11-19T20:20:54;99423.09;;;11.79;93.95
15529;BME280;7866;52.280;9.500;2023-11-19T20:25:57;99418.72;;;11.72;94.65
15529;BME280;7866;52.280;9.500;2023-11-19T20:30:58;99419.53;;;11.66;96.02
15529;BME280;7866;52.280;9.500;2023-11-19T20:36:00;99415.16;;;11.65;96.72
15529;BME280;7866;52.280;9.500;2023-11-19T20:41:03;99417.84;;;11.58;97.61
15529;BME280;7866;52.280;9.500;2023-11-19T20:46:05;99416.75;;;11.52;97.51
15529;BME280;7866;52.280;9.500;2023-11-19T20:51:07;99414.28;;;11.51;98.51
15529;BME280;7866;52.280;9.500;2023-11-19T20:56:10;99414.06;;;11.46;99.54
15529;BME280;7866;52.280;9.500;2023-11-19T21:01:12;99405.75;;;11.41;100.00
15529;BME280;7866;52.280;9.500;2023-11-19T21:06:14;99404.31;;;11.38;100.00
15529;BME280;7866;52.280;9.500;2023-11-19T21:11:17;99396.06;;;11.33;100.00
15529;BME280;7866;52.280;9.500;2023-11-19T21:16:19;99398.28;;;11.29;100.00
15529;BME280;7866;52.280;9.500;2023-11-19T21:21:21;99402.19;;;11.27;100.00
15529;BME280;7866;52.280;9.500;2023-11-19T21:26:24;99398.84;;;11.25;100.00
15529;BME280;7866;52.280;9.500;2023-11-19T21:31:25;99396.81;;;11.27;100.00
15529;BME280;7866;52.280;9.500;2023-11-19T21:36:27;99398.03;;;11.24;100.00
15529;BME280;7866;52.280;9.500;2023-11-19T21:41:30;99393.91;;;11.22;100.00
15529;BME280;7866;52.280;9.500;2023-11-19T21:46:32;99383.38;;;11.20;100.00
15529;BME280;7866;52.280;9.500;2023-11-19T21:51:38;99378.00;;;11.20;100.00
15529;BME280;7866;52.280;9.500;2023-11-19T21:56:41;99368.97;;;11.21;100.00
15529;BME280;7866;52.280;9.500;2023-11-19T22:01:43;99353.72;;;11.22;100.00
15529;BME280;7866;52.280;9.500;2023-11-19T22:06:44;99357.41;;;11.21;100.00
15529;BME280;7866;52.280;9.500;2023-11-19T22:11:47;99350.81;;;11.23;100.00
15529;BME280;7866;52.280;9.500;2023-11-19T22:16:49;99339.28;;;11.23;100.00
15529;BME280;7866;52.280;9.500;2023-11-19T22:21:51;99333.91;;;11.23;100.00
15529;BME280;7866;52.280;9.500;2023-11-19T22:26:54;99329.59;;;11.22;100.00
15529;BME280;7866;52.280;9.500;2023-11-19T22:31:56;99327.91;;;11.21;100.00
15529;BME280;7866;52.280;9.500;2023-11-19T22:42:02;99305.88;;;11.19;100.00
15529;BME280;7866;52.280;9.500;2023-11-19T22:47:05;99301.53;;;11.18;100.00
15529;BME280;7866;52.280;9.500;2023-11-19T22:52:08;99306.69;;;11.19;100.00
15529;BME280;7866;52.280;9.500;2023-11-19T22:57:11;99300.50;;;11.19;100.00
15529;BME280;7866;52.280;9.500;2023-11-19T23:02:12;99299.25;;;11.15;100.00
15529;BME280;7866;52.280;9.500;2023-11-19T23:07:14;99299.47;;;11.20;100.00
15529;BME280;7866;52.280;9.500;2023-11-19T23:12:17;99288.56;;;11.21;100.00
15529;BME280;7866;52.280;9.500;2023-11-19T23:17:19;99292.28;;;11.27;100.00
15529;BME280;7866;52.280;9.500;2023-11-19T23:22:21;99288.19;;;11.31;100.00
15529;BME280;7866;52.280;9.500;2023-11-19T23:27:24;99285.28;;;11.32;100.00
15529;BME280;7866;52.280;9.500;2023-11-19T23:32:25;99292.09;;;11.28;100.00
15529;BME280;7866;52.280;9.500;2023-11-19T23:37:27;99294.19;;;11.33;100.00
15529;BME280;7866;52.280;9.500;2023-11-19T23:42:30;99289.44;;;11.35;100.00
15529;BME280;7866;52.280;9.500;2023-11-19T23:47:32;99298.13;;;11.37;100.00
15529;BME280;7866;52.280;9.500;2023-11-19T23:52:34;99294.41;;;11.38;100.00
15529;BME280;7866;52.280;9.500;2023-11-19T23:57:37;99276.25;;;11.40;100.00
